createdAt,value
2022-09-28T00:05:38.828Z,0.9966555183946488
2022-09-28T00:12:07.744Z,0.7424749163879598
2022-09-28T00:18:37.448Z,1.548494983277592
2022-09-28T00:34:10.807Z,1.3444816053511706
2022-09-28T00:41:49.086Z,1.6923076923076923
2022-09-28T00:53:40.083Z,1.31438127090301
2022-09-28T01:00:08.616Z,2.0100334448160537
2022-09-28T01:12:00.468Z,1.568561872909699
2022-09-28T01:18:29.741Z,1.8662207357859533
2022-09-28T01:25:04.714Z,1.0434782608695652
2022-09-28T01:31:33.443Z,1.9498327759197325
2022-09-28T01:38:01.266Z,1.451505016722408
2022-09-28T01:44:29.504Z,1.5117056856187292
2022-09-28T01:50:57.493Z,1.862876254180602
2022-09-28T01:57:25.672Z,1.2842809364548495
2022-09-28T02:03:53.672Z,2.260869565217391
2022-09-28T02:17:25.531Z,1.491638795986622
2022-09-28T02:24:02.433Z,3.0133779264214047
2022-09-28T02:36:33.420Z,2.117056856187291
2022-09-28T02:43:01.740Z,1.4280936454849498
2022-09-28T02:49:29.772Z,1.6187290969899666
2022-09-28T02:55:57.931Z,2.2474916387959865
2022-09-28T03:03:09.209Z,2.234113712374582
2022-09-28T03:10:50.352Z,2.0434782608695654
2022-09-28T03:25:06.181Z,3.551839464882943
2022-09-28T03:31:34.464Z,2.8929765886287626
2022-09-28T03:38:02.754Z,4.565217391304348
2022-09-28T03:44:31.640Z,2.237458193979933
2022-09-28T03:54:15.957Z,3.0033444816053514
2022-09-28T04:00:43.931Z,3.488294314381271
2022-09-28T04:12:53.629Z,5.076923076923077
2022-09-28T04:19:21.101Z,4.8561872909699
2022-09-28T04:29:11.252Z,3.0501672240802677
2022-09-28T04:36:39.900Z,3.9264214046822743
2022-09-28T04:43:07.673Z,2.8160535117056855
2022-09-28T04:49:35.679Z,3.150501672240803
2022-09-28T04:56:02.507Z,2.270903010033445
2022-09-28T05:03:29.584Z,2.2675585284280935
2022-09-28T05:15:39.979Z,2.5752508361204014
2022-09-28T05:22:08.172Z,3.9698996655518393
2022-09-28T05:34:29.980Z,2.531772575250836
2022-09-28T05:40:57.818Z,2.6421404682274248
2022-09-28T05:51:23.519Z,2.4983277591973243
2022-09-28T05:57:49.976Z,2.9364548494983276
2022-09-28T06:04:17.242Z,5.949832775919733
2022-09-28T06:10:44.725Z,1.7357859531772575
2022-09-28T06:17:11.181Z,1.3779264214046822
2022-09-28T06:23:48.987Z,0.862876254180602
2022-09-28T06:36:36.033Z,1.391304347826087
2022-09-28T06:44:47.305Z,1.0903010033444815
2022-09-28T06:51:14.838Z,0.6220735785953178
2022-09-28T06:57:42.472Z,1.0434782608695652
2022-09-28T07:04:10.265Z,0.9130434782608695
2022-09-28T07:10:37.790Z,0.7023411371237458
2022-09-28T07:20:16.367Z,1.665551839464883
2022-09-28T07:26:52.348Z,1.3277591973244147
2022-09-28T07:33:18.782Z,1.5384615384615385
2022-09-28T07:39:46.048Z,1.0702341137123745
2022-09-28T07:49:11.436Z,0.8461538461538461
2022-09-28T08:03:44.582Z,0.43478260869565216
2022-09-28T08:10:12.059Z,1.0769230769230769
2022-09-28T08:23:56.500Z,1.157190635451505
2022-09-28T08:30:24.992Z,0.5083612040133779
2022-09-28T08:36:52.988Z,0.7224080267558528
2022-09-28T08:44:03.610Z,0.8896321070234113
2022-09-28T08:50:33.199Z,0.7892976588628763
2022-09-28T08:57:00.928Z,0.49498327759197325
2022-09-28T09:07:41.978Z,2.1036789297658864
2022-09-28T09:14:09.625Z,1.5785953177257526
2022-09-28T09:21:01.438Z,1.5183946488294315
2022-09-28T09:27:49.568Z,1.0702341137123745
2022-09-28T09:34:18.386Z,2.3846153846153846
2022-09-28T09:47:12.360Z,3.1438127090301005
2022-09-28T09:53:41.050Z,3.6622073578595318
2022-09-28T10:09:54.709Z,5.545150501672241
2022-09-28T10:16:24.932Z,3.762541806020067
2022-09-28T10:29:03.613Z,6.2842809364548495
2022-09-28T11:00:12.401Z,6.478260869565218
2022-09-28T11:06:41.317Z,6.190635451505017
2022-09-28T11:13:09.415Z,7.645484949832776
2022-09-28T11:19:37.522Z,7.896321070234114
2022-09-28T11:31:45.914Z,4.548494983277592
2022-09-28T11:45:32.569Z,6.68561872909699
2022-09-28T11:56:18.034Z,7.60200668896321
2022-09-28T12:02:47.023Z,7.003344481605351
2022-09-28T12:10:07.895Z,5.7157190635451505
2022-09-28T12:17:04.318Z,3.8963210702341136
2022-09-28T12:23:42.624Z,3.9765886287625416
2022-09-28T12:30:11.652Z,4.7324414715719065
2022-09-28T12:36:41.994Z,5.381270903010034
2022-09-28T12:48:37.869Z,3.709030100334448
2022-09-28T12:58:38.270Z,3.8729096989966556
2022-09-28T13:06:22.590Z,3.963210702341137
2022-09-28T13:14:56.410Z,2.7859531772575252
2022-09-28T13:24:14.810Z,2.632107023411371
2022-09-28T13:33:03.915Z,3.8361204013377925
2022-09-28T13:39:34.308Z,1.5518394648829432
2022-09-28T13:50:43.090Z,3.1471571906354514
2022-09-28T13:57:12.417Z,1.585284280936455
2022-09-28T14:03:42.217Z,2.2073578595317724
2022-09-28T14:16:29.739Z,1.7123745819397993
2022-09-28T14:22:58.977Z,1.8862876254180603
2022-09-28T14:29:29.122Z,1.5618729096989967
2022-09-28T14:35:57.857Z,2.6354515050167224
2022-09-28T14:42:27.248Z,1.5518394648829432
2022-09-28T14:52:19.850Z,1.3678929765886287
2022-09-28T15:03:13.395Z,1.7290969899665551
2022-09-28T15:13:42.202Z,0.8561872909698997
2022-09-28T15:20:13.146Z,1.7525083612040133
2022-09-28T15:28:34.929Z,2.05685618729097
2022-09-28T15:41:55.987Z,1.2675585284280937
2022-09-28T15:48:26.488Z,1.3110367892976589
2022-09-28T15:54:56.439Z,2.100334448160535
2022-09-28T16:01:26.695Z,2.5652173913043477
2022-09-28T16:07:56.699Z,1.9832775919732442
2022-09-28T16:14:26.656Z,1.7324414715719063
2022-09-28T16:20:57.012Z,1.7157190635451505
2022-09-28T16:28:10.486Z,0.9966555183946488
2022-09-28T16:34:40.335Z,2.210702341137124
2022-09-28T16:43:56.475Z,2.1538461538461537
2022-09-28T16:50:26.818Z,1.8361204013377928
2022-09-28T16:59:03.108Z,1.9966555183946488
2022-09-28T17:05:33.131Z,4.735785953177258
2022-09-28T17:18:21.502Z,6.384615384615385
2022-09-28T17:27:21.474Z,3.9966555183946486
2022-09-28T17:33:51.508Z,5.769230769230769
2022-09-28T17:40:21.517Z,4.842809364548495
2022-09-28T17:46:51.163Z,7.073578595317726
2022-09-28T17:53:21.441Z,6.765886287625418
2022-09-28T18:00:44.917Z,9.304347826086957
2022-09-28T18:25:51.197Z,8.324414715719064
2022-09-28T18:32:21.558Z,7.270903010033445
2022-09-28T18:38:51.709Z,10.424749163879598
2022-09-28T18:49:43.585Z,9.013377926421406
2022-09-28T18:56:17.233Z,9.956521739130435
2022-09-28T19:06:04.995Z,10.94314381270903
2022-09-28T19:12:36.645Z,7.929765886287625
2022-09-28T19:19:09.973Z,8.451505016722408
2022-09-28T19:25:54.372Z,9.785953177257525
2022-09-28T19:32:33.252Z,8.34448160535117
2022-09-28T19:39:08.818Z,10.361204013377927
2022-09-28T19:52:46.448Z,11.143812709030101
2022-09-28T19:59:21.053Z,9.424749163879598
2022-09-28T20:05:54.775Z,10.23076923076923
2022-09-28T20:12:28.680Z,8.397993311036789
2022-09-28T20:28:28.645Z,9.79598662207358
2022-09-28T20:40:59.348Z,8.648829431438127
2022-09-28T20:47:33.594Z,8.334448160535118
2022-09-28T20:54:06.994Z,9.397993311036789
2022-09-28T21:00:41.400Z,8.635451505016722
2022-09-28T21:34:15.591Z,8.809364548494983
2022-09-28T21:40:50.544Z,6.909698996655519
2022-09-28T21:47:25.938Z,6.9397993311036785
2022-09-28T21:55:29.583Z,5.789297658862877
2022-09-28T22:02:04.576Z,9.321070234113712
2022-09-28T22:08:39.240Z,8.123745819397993
2022-09-28T22:25:25.700Z,9.070234113712374
2022-09-28T22:31:58.474Z,10.377926421404682
2022-09-28T22:38:32.055Z,6.331103678929765
2022-09-28T22:45:05.369Z,9.418060200668897
2022-09-28T22:51:39.712Z,6.846153846153846
2022-09-28T22:58:45.554Z,6.986622073578595
2022-09-28T23:05:20.830Z,7.39799331103679
2022-09-28T23:15:48.677Z,5.892976588628763
2022-09-28T23:22:23.541Z,7.913043478260869
2022-09-28T23:29:09.530Z,7.852842809364549
2022-09-28T23:36:05.238Z,7.026755852842809
2022-09-28T23:56:40.619Z,5.197324414715719
